createdAt,value
2023-05-01T00:01:34.400Z,99079.23
2023-05-01T00:04:01.743Z,99079.52
2023-05-01T00:06:28.732Z,99075.14
2023-05-01T00:08:56.065Z,99076.12
2023-05-01T00:11:23.430Z,99077.34
2023-05-01T00:13:50.814Z,99078.02
2023-05-01T00:16:18.908Z,99072.86
2023-05-01T00:18:45.986Z,99076.38
2023-05-01T00:21:12.986Z,99071.10
2023-05-01T00:23:40.234Z,99069.48
2023-05-01T00:26:08.463Z,99067.86
2023-05-01T00:28:35.427Z,99066.48
2023-05-01T00:31:02.803Z,99063.45
2023-05-01T00:33:29.949Z,99063.80
2023-05-01T00:35:57.140Z,99063.36
2023-05-01T00:38:24.788Z,99063.31
2023-05-01T00:40:52.135Z,99063.86
2023-05-01T00:43:19.166Z,99058.81
2023-05-01T00:45:46.723Z,99057.45
2023-05-01T00:48:15.305Z,99055.85
2023-05-01T00:50:44.228Z,99057.08
2023-05-01T00:53:11.848Z,99055.80
2023-05-01T00:55:42.381Z,99055.23
2023-05-01T00:58:10.574Z,99054.84
2023-05-01T01:00:38.567Z,99049.10
2023-05-01T01:03:06.498Z,99047.07
2023-05-01T01:05:40.995Z,99045.44
2023-05-01T01:08:23.051Z,99040.70
2023-05-01T01:10:59.976Z,99041.45
2023-05-01T01:13:37.179Z,99041.21
2023-05-01T01:16:33.144Z,99037.65
2023-05-01T01:19:26.578Z,99035.70
2023-05-01T01:21:59.136Z,99031.66
2023-05-01T01:24:58.066Z,99033.95
2023-05-01T01:27:52.705Z,99029.91
2023-05-01T01:30:26.194Z,99029.19
2023-05-01T01:33:31.574Z,99027.80
2023-05-01T01:36:07.945Z,99023.65
2023-05-01T01:38:42.978Z,99026.31
2023-05-01T01:41:21.854Z,99025.35
2023-05-01T01:43:58.842Z,99022.56
2023-05-01T01:46:27.232Z,99024.34
2023-05-01T01:48:57.560Z,99024.66
2023-05-01T01:51:27.311Z,99020.63
2023-05-01T01:53:58.998Z,99015.50
2023-05-01T01:56:28.543Z,99014.58
2023-05-01T01:58:57.220Z,99015.58
2023-05-01T02:01:25.860Z,99017.98
2023-05-01T02:03:54.938Z,99013.42
2023-05-01T02:06:24.570Z,99012.69
2023-05-01T02:08:53.677Z,99007.07
2023-05-01T02:11:23.690Z,98998.73
2023-05-01T02:13:52.273Z,99000.13
2023-05-01T02:16:21.149Z,99001.52
2023-05-01T02:18:49.220Z,99001.44
2023-05-01T02:21:16.897Z,98998.83
2023-05-01T02:23:44.253Z,98995.88
2023-05-01T02:26:17.302Z,98994.32
2023-05-01T02:28:44.635Z,98992.07
2023-05-01T02:31:11.861Z,98992.20
2023-05-01T02:33:39.096Z,98991.52
2023-05-01T02:36:06.740Z,98989.65
2023-05-01T02:38:33.899Z,98991.52
2023-05-01T02:41:02.267Z,98992.13
2023-05-01T02:43:32.701Z,98990.79
2023-05-01T02:46:00.841Z,98985.73
2023-05-01T02:48:29.346Z,98988.54
2023-05-01T02:50:57.935Z,98986.02
2023-05-01T02:53:24.852Z,98981.86
2023-05-01T02:55:51.946Z,98981.77
2023-05-01T02:58:20.586Z,98982.98
2023-05-01T03:00:50.286Z,98982.70
2023-05-01T03:03:18.068Z,98978.95
2023-05-01T03:05:45.416Z,98978.74
2023-05-01T03:08:13.059Z,98980.79
2023-05-01T03:10:42.976Z,98981.11
2023-05-01T03:13:11.613Z,98976.83
2023-05-01T03:15:39.580Z,98975.40
2023-05-01T03:18:07.327Z,98974.55
2023-05-01T03:20:34.379Z,98970.19
2023-05-01T03:23:01.895Z,98967.16
2023-05-01T03:25:28.856Z,98966.47
2023-05-01T03:27:55.768Z,98960.82
2023-05-01T03:30:22.944Z,98959.83
2023-05-01T03:32:49.981Z,98955.83
2023-05-01T03:35:17.071Z,98960.98
2023-05-01T03:37:44.053Z,98961.69
2023-05-01T03:40:13.982Z,98961.61
2023-05-01T03:42:40.963Z,98961.83
2023-05-01T03:45:09.148Z,98958.13
2023-05-01T03:47:36.246Z,98956.73
2023-05-01T03:50:03.748Z,98955.49
2023-05-01T03:52:31.561Z,98956.52
2023-05-01T03:54:58.418Z,98955.87
2023-05-01T03:57:25.352Z,98955.80
2023-05-01T03:59:52.279Z,98958.92
2023-05-01T04:02:19.584Z,98961.14
2023-05-01T04:04:46.911Z,98959.23
2023-05-01T04:07:14.655Z,98958.98
2023-05-01T04:09:41.893Z,98958.05
2023-05-01T04:12:08.829Z,98956.21
2023-05-01T04:14:36.424Z,98956.32
2023-05-01T04:17:03.667Z,98953.84
2023-05-01T04:19:30.810Z,98954.54
2023-05-01T04:21:57.970Z,98952.31
2023-05-01T04:24:25.212Z,98955.97
2023-05-01T04:26:52.130Z,98958.81
2023-05-01T04:29:19.066Z,98959.09
2023-05-01T04:31:46.238Z,98956.98
2023-05-01T04:34:13.170Z,98959.56
2023-05-01T04:36:40.141Z,98957.54
2023-05-01T04:39:07.250Z,98961.36
2023-05-01T04:41:34.604Z,98962.14
2023-05-01T04:44:01.512Z,98961.23
2023-05-01T04:46:28.412Z,98961.26
2023-05-01T04:48:55.566Z,98961.46
2023-05-01T04:51:22.889Z,98959.52
2023-05-01T04:53:49.723Z,98959.27
2023-05-01T04:56:16.561Z,98961.06
2023-05-01T04:58:43.828Z,98957.36
2023-05-01T05:01:11.400Z,98960.66
2023-05-01T05:03:38.468Z,98961.69
2023-05-01T05:06:06.004Z,98957.33
2023-05-01T05:08:32.899Z,98958.31
2023-05-01T05:11:00.702Z,98964.59
2023-05-01T05:13:29.136Z,98965.73
2023-05-01T05:15:55.947Z,98964.39
2023-05-01T05:18:23.022Z,98964.40
2023-05-01T05:20:50.741Z,98961.27
2023-05-01T05:23:17.623Z,98959.09
2023-05-01T05:25:44.607Z,98962.23
2023-05-01T05:28:11.459Z,98960.61
2023-05-01T05:30:38.778Z,98958.30
2023-05-01T05:33:09.272Z,98953.79
2023-05-01T05:35:36.974Z,98953.02
2023-05-01T05:38:04.218Z,98956.25
2023-05-01T05:40:31.289Z,98956.40
2023-05-01T05:42:58.342Z,98956.51
2023-05-01T05:45:25.301Z,98951.31
2023-05-01T05:47:52.254Z,98951.39
2023-05-01T05:50:19.007Z,98947.38
2023-05-01T05:52:46.214Z,98945.14
2023-05-01T05:55:13.229Z,98944.95
2023-05-01T05:57:40.068Z,98944.80
2023-05-01T06:00:09.628Z,98940.92
2023-05-01T06:02:37.187Z,98949.77
2023-05-01T06:05:04.530Z,98943.25
2023-05-01T06:07:31.633Z,98943.29
2023-05-01T06:10:04.538Z,98943.83
2023-05-01T06:12:32.229Z,98935.52
2023-05-01T06:15:00.345Z,98939.05
2023-05-01T06:17:27.537Z,98940.08
2023-05-01T06:19:54.558Z,98941.71
2023-05-01T06:22:21.792Z,98944.67
2023-05-01T06:24:48.937Z,98942.77
2023-05-01T06:27:19.748Z,98942.45
2023-05-01T06:29:56.845Z,98939.35
2023-05-01T06:32:24.223Z,98944.11
2023-05-01T06:34:51.634Z,98944.27
2023-05-01T06:37:18.614Z,98942.05
2023-05-01T06:39:45.540Z,98937.83
2023-05-01T06:42:16.382Z,98940.87
2023-05-01T06:44:44.264Z,98937.69
2023-05-01T06:47:11.263Z,98939.96
2023-05-01T06:49:38.662Z,98938.87
2023-05-01T06:52:05.881Z,98937.57
2023-05-01T06:54:33.266Z,98938.90
2023-05-01T06:57:00.183Z,98933.73
2023-05-01T06:59:27.262Z,98929.33
2023-05-01T07:01:54.078Z,98928.31
2023-05-01T07:04:21.026Z,98923.55
2023-05-01T07:06:48.325Z,98927.58
2023-05-01T07:09:15.946Z,98923.72
2023-05-01T07:11:43.316Z,98922.89
2023-05-01T07:14:10.262Z,98919.41
2023-05-01T07:16:37.091Z,98919.08
2023-05-01T07:19:04.244Z,98916.24
2023-05-01T07:21:32.594Z,98916.50
2023-05-01T07:23:59.667Z,98917.55
2023-05-01T07:26:27.877Z,98919.20
2023-05-01T07:28:55.049Z,98921.98
2023-05-01T07:31:23.173Z,98921.88
2023-05-01T07:33:51.101Z,98919.33
2023-05-01T07:36:20.792Z,98917.19
2023-05-01T07:38:48.769Z,98920.05
2023-05-01T07:41:15.594Z,98916.26
2023-05-01T07:43:42.544Z,98916.13
2023-05-01T07:46:09.713Z,98913.12
2023-05-01T07:48:38.841Z,98913.98
2023-05-01T07:51:06.247Z,98912.15
2023-05-01T07:53:33.853Z,98913.00
2023-05-01T07:56:10.609Z,98916.77
2023-05-01T07:58:37.926Z,98913.13
2023-05-01T08:01:06.621Z,98911.38
2023-05-01T08:03:33.803Z,98914.81
2023-05-01T08:06:01.253Z,98905.66
2023-05-01T08:08:28.248Z,98909.85
2023-05-01T08:10:55.193Z,98906.36
2023-05-01T08:13:22.376Z,98903.91
2023-05-01T08:15:50.002Z,98903.61
2023-05-01T08:18:21.346Z,98904.90
2023-05-01T08:20:48.954Z,98902.73
2023-05-01T08:23:17.601Z,98899.89
2023-05-01T08:25:51.201Z,98887.80
2023-05-01T08:28:21.041Z,98889.07
2023-05-01T08:30:49.555Z,98889.76
2023-05-01T08:33:17.216Z,98884.79
2023-05-01T08:35:44.097Z,98885.15
2023-05-01T08:38:12.954Z,98884.85
2023-05-01T08:40:44.467Z,98887.36
2023-05-01T08:43:13.861Z,98885.23
2023-05-01T08:45:43.258Z,98884.45
2023-05-01T08:48:13.254Z,98884.08
2023-05-01T08:50:45.772Z,98880.94
2023-05-01T08:53:15.897Z,98876.65
2023-05-01T08:55:47.823Z,98873.11
2023-05-01T08:58:17.699Z,98877.38
2023-05-01T09:00:46.935Z,98878.42
2023-05-01T09:03:15.056Z,98875.54
2023-05-01T09:05:46.928Z,98873.45
2023-05-01T09:08:15.236Z,98870.63
2023-05-01T09:10:46.747Z,98866.08
2023-05-01T09:13:14.371Z,98868.48
2023-05-01T09:15:42.316Z,98867.79
2023-05-01T09:18:10.371Z,98861.63
2023-05-01T09:20:38.509Z,98857.85
2023-05-01T09:23:07.590Z,98862.13
2023-05-01T09:25:34.605Z,98861.70
2023-05-01T09:28:04.768Z,98855.31
2023-05-01T09:30:34.988Z,98855.52
2023-05-01T09:33:07.737Z,98857.41
2023-05-01T09:40:03.727Z,98858.76
2023-05-01T09:42:32.866Z,98852.84
2023-05-01T09:45:02.070Z,98849.13
2023-05-01T09:47:34.646Z,98848.23
2023-05-01T09:50:01.962Z,98847.77
2023-05-01T09:52:30.718Z,98844.95
2023-05-01T09:55:17.770Z,98843.48
2023-05-01T09:57:46.828Z,98838.04
2023-05-01T10:00:15.787Z,98840.05
2023-05-01T10:02:46.743Z,98841.07
2023-05-01T10:05:14.409Z,98839.73
2023-05-01T10:07:57.623Z,98838.99
2023-05-01T10:10:28.503Z,98839.34
2023-05-01T10:12:55.725Z,98842.45
2023-05-01T10:15:26.746Z,98838.80
2023-05-01T10:17:55.068Z,98834.02
2023-05-01T10:20:22.675Z,98832.39
2023-05-01T10:22:49.907Z,98825.58
2023-05-01T10:25:18.321Z,98825.52
2023-05-01T10:27:46.169Z,98817.36
2023-05-01T10:30:13.522Z,98814.83
2023-05-01T10:32:43.164Z,98818.61
2023-05-01T10:35:20.011Z,98814.37
2023-05-01T10:37:47.986Z,98813.09
2023-05-01T10:40:40.371Z,98809.09
2023-05-01T10:43:16.398Z,98812.67
2023-05-01T10:45:44.763Z,98807.84
2023-05-01T10:48:12.557Z,98804.09
2023-05-01T10:51:10.266Z,98799.63
2023-05-01T10:53:41.944Z,98800.16
2023-05-01T10:56:30.882Z,98798.09
2023-05-01T10:58:58.030Z,98793.56
2023-05-01T11:01:40.167Z,98793.02
2023-05-01T11:04:19.610Z,98788.07
2023-05-01T11:07:02.526Z,98784.57
2023-05-01T11:09:51.521Z,98775.19
2023-05-01T11:12:46.947Z,98773.31
2023-05-01T11:15:34.952Z,98772.39
2023-05-01T11:18:04.129Z,98765.97
2023-05-01T11:20:37.232Z,98763.05
2023-05-01T11:23:04.481Z,98762.01
2023-05-01T11:25:33.385Z,98764.06
2023-05-01T11:28:02.664Z,98760.27
2023-05-01T11:30:48.580Z,98755.09
2023-05-01T11:33:23.057Z,98749.53
2023-05-01T11:35:59.362Z,98746.36
2023-05-01T11:38:26.486Z,98743.75
2023-05-01T11:40:59.288Z,98739.45
2023-05-01T11:43:27.360Z,98740.84
2023-05-01T11:45:55.611Z,98736.86
2023-05-01T11:48:22.971Z,98735.61
2023-05-01T11:50:50.672Z,98731.12
2023-05-01T11:53:18.020Z,98728.61
2023-05-01T11:55:46.026Z,98725.71
2023-05-01T11:58:13.667Z,98716.77
2023-05-01T12:00:43.700Z,98716.55
2023-05-01T12:03:12.550Z,98710.83
2023-05-01T12:05:44.198Z,98707.36
2023-05-01T12:08:21.804Z,98707.14
2023-05-01T12:10:54.095Z,98701.42
2023-05-01T12:16:06.404Z,98698.91
2023-05-01T12:18:33.631Z,98701.72
2023-05-01T12:21:01.765Z,98701.18
2023-05-01T12:23:39.832Z,98697.59
2023-05-01T12:26:23.983Z,98698.81
2023-05-01T12:28:56.002Z,98694.17
2023-05-01T12:31:25.283Z,98694.11
2023-05-01T12:33:57.790Z,98691.85
2023-05-01T12:36:28.500Z,98685.09
2023-05-01T12:39:10.587Z,98677.69
2023-05-01T12:41:46.278Z,98672.74
2023-05-01T12:44:20.587Z,98674.27
2023-05-01T12:46:59.956Z,98669.67
2023-05-01T12:49:28.315Z,98666.32
2023-05-01T12:51:57.109Z,98663.66
2023-05-01T12:54:39.052Z,98657.50
2023-05-01T12:57:18.323Z,98652.89
2023-05-01T12:59:46.965Z,98646.10
2023-05-01T13:02:16.414Z,98643.93
2023-05-01T13:04:49.555Z,98638.02
2023-05-01T13:07:19.205Z,98639.17
2023-05-01T13:10:00.908Z,98634.36
2023-05-01T13:12:29.270Z,98633.72
2023-05-01T13:14:57.070Z,98630.92
2023-05-01T13:17:29.002Z,98627.32
2023-05-01T13:20:05.376Z,98624.54
2023-05-01T13:22:36.896Z,98622.40
2023-05-01T13:25:06.804Z,98621.73
2023-05-01T13:27:34.319Z,98619.75
2023-05-01T13:30:02.822Z,98620.38
2023-05-01T13:32:30.118Z,98619.02
2023-05-01T13:35:01.628Z,98613.86
2023-05-01T13:37:29.736Z,98609.83
2023-05-01T13:40:01.517Z,98605.23
2023-05-01T13:42:28.645Z,98599.11
2023-05-01T13:44:58.424Z,98598.06
2023-05-01T13:47:27.287Z,98594.83
2023-05-01T13:50:04.366Z,98596.34
2023-05-01T13:52:47.012Z,98592.98
2023-05-01T13:55:15.961Z,98587.67
2023-05-01T13:57:43.654Z,98585.91
2023-05-01T14:00:17.964Z,98578.45
2023-05-01T14:02:48.826Z,98577.95
2023-05-01T14:05:17.010Z,98582.02
2023-05-01T14:07:58.773Z,98577.13
2023-05-01T14:10:28.966Z,98576.80
2023-05-01T14:12:58.338Z,98579.42
2023-05-01T14:15:25.918Z,98576.59
2023-05-01T14:17:53.486Z,98566.73
2023-05-01T14:20:20.722Z,98567.25
2023-05-01T14:22:51.933Z,98558.56
2023-05-01T14:25:35.006Z,98555.94
2023-05-01T14:28:06.320Z,98552.83
2023-05-01T14:30:38.852Z,98551.95
2023-05-01T14:33:11.441Z,98550.70
2023-05-01T14:35:49.055Z,98547.13
2023-05-01T14:38:17.558Z,98544.30
2023-05-01T14:40:45.800Z,98539.06
2023-05-01T14:43:22.675Z,98539.39
2023-05-01T14:45:50.439Z,98527.96
2023-05-01T14:48:35.462Z,98525.41
2023-05-01T14:51:06.649Z,98528.05
2023-05-01T14:53:34.073Z,98524.06
2023-05-01T14:56:00.989Z,98521.36
2023-05-01T14:58:27.948Z,98519.30
2023-05-01T15:00:54.774Z,98515.54
2023-05-01T15:03:22.474Z,98513.48
2023-05-01T15:05:49.491Z,98508.65
2023-05-01T15:08:17.077Z,98508.91
2023-05-01T15:10:45.630Z,98509.99
2023-05-01T15:13:13.150Z,98510.36
2023-05-01T15:15:40.116Z,98508.77
2023-05-01T15:18:07.744Z,98514.09
2023-05-01T15:20:35.166Z,98504.61
2023-05-01T15:23:02.084Z,98504.59
2023-05-01T15:25:29.678Z,98502.80
2023-05-01T15:27:57.409Z,98497.17
2023-05-01T15:30:24.335Z,98500.71
2023-05-01T15:32:52.057Z,98504.15
2023-05-01T15:35:19.363Z,98501.91
2023-05-01T15:37:46.435Z,98502.59
2023-05-01T15:40:13.681Z,98503.15
2023-05-01T15:42:41.656Z,98507.83
2023-05-01T15:45:10.178Z,98504.05
2023-05-01T15:47:37.308Z,98503.11
2023-05-01T15:50:04.820Z,98498.01
2023-05-01T15:52:31.749Z,98505.31
2023-05-01T15:54:58.700Z,98503.39
2023-05-01T15:57:25.647Z,98507.33
2023-05-01T15:59:54.242Z,98507.06
2023-05-01T16:02:22.168Z,98504.11
2023-05-01T16:04:49.746Z,98501.45
2023-05-01T16:07:16.776Z,98499.71
2023-05-01T16:09:44.507Z,98498.04
2023-05-01T16:12:12.177Z,98495.47
2023-05-01T16:14:42.865Z,98498.02
2023-05-01T16:17:09.952Z,98493.98
2023-05-01T16:19:37.532Z,98490.92
2023-05-01T16:22:05.881Z,98487.44
2023-05-01T16:24:34.172Z,98486.34
2023-05-01T16:27:01.125Z,98490.13
2023-05-01T16:29:28.064Z,98487.84
2023-05-01T16:31:55.032Z,98483.92
2023-05-01T16:34:25.733Z,98475.79
2023-05-01T16:36:53.157Z,98476.27
2023-05-01T16:39:22.477Z,98476.70
2023-05-01T16:41:51.694Z,98474.96
2023-05-01T16:44:22.023Z,98473.80
2023-05-01T16:46:56.318Z,98470.31
2023-05-01T16:49:24.838Z,98469.77
2023-05-01T16:51:56.874Z,98466.73
2023-05-01T16:54:25.496Z,98472.19
2023-05-01T16:56:52.490Z,98476.18
2023-05-01T16:59:19.881Z,98474.45
2023-05-01T17:01:46.920Z,98477.31
2023-05-01T17:04:15.427Z,98472.70
2023-05-01T17:06:42.468Z,98472.73
2023-05-01T17:09:09.474Z,98465.85
2023-05-01T17:11:36.726Z,98468.46
2023-05-01T17:14:04.062Z,98466.61
2023-05-01T17:16:32.979Z,98466.35
2023-05-01T17:18:59.990Z,98469.08
2023-05-01T17:21:28.583Z,98472.69
2023-05-01T17:23:55.543Z,98473.30
2023-05-01T17:26:23.306Z,98471.04
2023-05-01T17:28:51.063Z,98473.70
2023-05-01T17:31:19.935Z,98471.61
2023-05-01T17:33:49.313Z,98470.94
2023-05-01T17:36:16.682Z,98472.54
2023-05-01T17:38:43.965Z,98471.97
2023-05-01T17:41:10.882Z,98473.66
2023-05-01T17:43:38.148Z,98469.23
2023-05-01T17:46:07.038Z,98464.94
2023-05-01T17:48:34.268Z,98461.80
2023-05-01T17:51:01.715Z,98464.38
2023-05-01T17:53:29.203Z,98464.59
2023-05-01T17:55:56.328Z,98464.06
2023-05-01T17:58:23.256Z,98468.25
2023-05-01T18:00:50.620Z,98473.61
2023-05-01T18:03:17.873Z,98473.76
2023-05-01T18:05:45.544Z,98472.12
2023-05-01T18:08:12.505Z,98472.37
2023-05-01T18:10:39.560Z,98473.06
2023-05-01T18:13:06.557Z,98471.35
2023-05-01T18:15:33.638Z,98469.94
2023-05-01T18:18:00.633Z,98470.80
2023-05-01T18:20:29.230Z,98468.10
2023-05-01T18:22:56.504Z,98471.64
2023-05-01T18:25:23.744Z,98470.35
2023-05-01T18:27:51.594Z,98471.38
2023-05-01T18:30:18.878Z,98470.52
2023-05-01T18:32:48.365Z,98470.98
2023-05-01T18:35:19.303Z,98467.02
2023-05-01T18:37:47.694Z,98465.69
2023-05-01T18:40:15.466Z,98466.07
2023-05-01T18:42:43.162Z,98468.65
2023-05-01T18:45:10.884Z,98470.31
2023-05-01T18:47:38.257Z,98468.61
2023-05-01T18:50:06.601Z,98475.38
2023-05-01T18:52:33.756Z,98477.19
2023-05-01T18:55:01.187Z,98476.80
2023-05-01T18:57:29.449Z,98477.16
2023-05-01T18:59:56.747Z,98478.08
2023-05-01T19:02:24.108Z,98477.11
2023-05-01T19:05:02.176Z,98477.08
2023-05-01T19:07:40.451Z,98484.52
2023-05-01T19:10:15.242Z,98483.42
2023-05-01T19:12:55.054Z,98482.45
2023-05-01T19:15:36.318Z,98484.77
2023-05-01T19:18:07.990Z,98485.20
2023-05-01T19:20:35.108Z,98482.84
2023-05-01T19:23:02.116Z,98481.46
2023-05-01T19:25:30.648Z,98486.27
2023-05-01T19:27:58.089Z,98484.70
2023-05-01T19:30:25.347Z,98486.10
2023-05-01T19:35:39.273Z,98488.86
2023-05-01T19:48:54.364Z,98483.70
2023-05-01T19:51:24.220Z,98490.27
2023-05-01T19:54:05.554Z,98491.73
2023-05-01T19:59:19.060Z,98494.42
2023-05-01T20:01:48.654Z,98497.42
2023-05-01T20:04:16.046Z,98494.80
2023-05-01T20:06:53.634Z,98498.08
2023-05-01T20:09:22.756Z,98498.22
2023-05-01T20:14:42.320Z,98496.85
2023-05-01T20:17:10.056Z,98497.51
2023-05-01T20:19:39.822Z,98496.10
2023-05-01T20:22:08.283Z,98494.23
2023-05-01T20:24:36.359Z,98494.58
2023-05-01T20:29:54.483Z,98492.48
2023-05-01T20:32:23.689Z,98489.90
2023-05-01T20:34:50.869Z,98492.85
2023-05-01T20:37:19.520Z,98495.24
2023-05-01T20:39:46.558Z,98496.51
2023-05-01T20:42:13.493Z,98494.51
2023-05-01T20:44:40.441Z,98497.94
2023-05-01T20:47:07.467Z,98495.10
2023-05-01T20:49:34.311Z,98502.73
2023-05-01T20:52:01.404Z,98499.00
2023-05-01T20:54:32.632Z,98506.77
2023-05-01T20:57:00.476Z,98507.67
2023-05-01T20:59:27.305Z,98508.58
2023-05-01T21:01:54.612Z,98506.54
2023-05-01T21:04:21.920Z,98506.42
2023-05-01T21:06:49.226Z,98509.95
2023-05-01T21:09:16.921Z,98513.20
2023-05-01T21:11:43.868Z,98509.82
2023-05-01T21:14:11.827Z,98509.99
2023-05-01T21:16:39.873Z,98511.96
2023-05-01T21:19:07.613Z,98514.94
2023-05-01T21:21:37.289Z,98511.59
2023-05-01T21:24:05.751Z,98511.70
2023-05-01T21:26:32.801Z,98508.69
2023-05-01T21:29:00.117Z,98514.83
2023-05-01T21:31:31.226Z,98510.63
2023-05-01T21:34:04.267Z,98513.22
2023-05-01T21:36:31.731Z,98513.10
2023-05-01T21:39:10.269Z,98514.73
2023-05-01T21:41:38.089Z,98517.46
2023-05-01T21:44:05.453Z,98522.81
2023-05-01T21:46:32.797Z,98521.73
2023-05-01T21:48:59.952Z,98517.38
2023-05-01T21:51:32.628Z,98521.58
2023-05-01T21:54:04.807Z,98520.31
2023-05-01T21:56:33.054Z,98518.61
2023-05-01T21:59:05.953Z,98519.31
2023-05-01T22:01:33.128Z,98519.74
2023-05-01T22:04:00.504Z,98523.66
2023-05-01T22:06:28.706Z,98526.15
2023-05-01T22:08:55.908Z,98524.20
2023-05-01T22:11:24.468Z,98523.95
2023-05-01T22:13:51.320Z,98524.16
2023-05-01T22:16:18.402Z,98529.66
2023-05-01T22:18:49.376Z,98523.05
2023-05-01T22:21:17.475Z,98523.07
2023-05-01T22:23:44.296Z,98519.77
2023-05-01T22:26:11.437Z,98518.38
2023-05-01T22:28:38.386Z,98519.26
2023-05-01T22:31:05.422Z,98518.58
2023-05-01T22:33:32.271Z,98521.75
2023-05-01T22:35:59.209Z,98520.88
2023-05-01T22:38:26.400Z,98522.37
2023-05-01T22:40:53.433Z,98525.89
2023-05-01T22:43:20.465Z,98526.54
2023-05-01T22:45:47.398Z,98531.52
2023-05-01T22:48:14.711Z,98532.14
2023-05-01T22:50:43.106Z,98529.94
2023-05-01T22:53:10.269Z,98527.95
2023-05-01T22:55:38.247Z,98528.91
2023-05-01T22:58:05.195Z,98524.43
2023-05-01T23:00:38.297Z,98524.36
2023-05-01T23:03:08.700Z,98524.88
2023-05-01T23:05:44.053Z,98523.59
2023-05-01T23:08:19.177Z,98522.55
2023-05-01T23:10:51.638Z,98523.24
2023-05-01T23:13:24.956Z,98526.24
2023-05-01T23:15:52.646Z,98524.67
2023-05-01T23:18:25.585Z,98524.26
2023-05-01T23:20:53.114Z,98528.33
2023-05-01T23:23:21.426Z,98525.22
2023-05-01T23:25:50.721Z,98523.77
2023-05-01T23:28:23.091Z,98522.30
2023-05-01T23:30:55.863Z,98524.09
2023-05-01T23:33:27.506Z,98523.58
2023-05-01T23:35:54.447Z,98522.38
2023-05-01T23:38:21.389Z,98515.77
2023-05-01T23:40:50.076Z,98511.13
2023-05-01T23:43:17.428Z,98508.59
2023-05-01T23:45:44.783Z,98505.52
2023-05-01T23:48:12.118Z,98509.55
2023-05-01T23:50:40.309Z,98508.64
2023-05-01T23:53:08.835Z,98507.91
2023-05-01T23:55:37.268Z,98509.19
2023-05-01T23:58:05.100Z,98509.14
